sensor_id;sensor_type;location;lat;lon;timestamp;P1;durP1;ratioP1;P2;durP2;ratioP2
41139;SDS011;26881;48.784;9.192;2022-08-02T00:00:14;2.60;;;1.90;;
41139;SDS011;26881;48.784;9.192;2022-08-02T00:05:37;1.80;;;1.48;;
41139;SDS011;26881;48.784;9.192;2022-08-02T00:11:00;2.85;;;1.58;;
41139;SDS011;26881;48.784;9.192;2022-08-02T00:16:22;2.85;;;1.67;;
41139;SDS011;26881;48.784;9.192;2022-08-02T00:21:58;3.60;;;1.70;;
41139;SDS011;26881;48.784;9.192;2022-08-02T00:27:20;3.45;;;1.70;;
41139;SDS011;26881;48.784;9.192;2022-08-02T00:32:42;3.50;;;1.88;;
41139;SDS011;26881;48.784;9.192;2022-08-02T00:38:04;2.28;;;2.08;;
41139;SDS011;26881;48.784;9.192;2022-08-02T00:43:25;3.17;;;2.30;;
41139;SDS011;26881;48.784;9.192;2022-08-02T00:48:47;3.75;;;2.00;;
41139;SDS011;26881;48.784;9.192;2022-08-02T00:54:10;1.80;;;1.70;;
41139;SDS011;26881;48.784;9.192;2022-08-02T00:59:32;4.05;;;2.22;;
41139;SDS011;26881;48.784;9.192;2022-08-02T01:04:53;3.70;;;1.98;;
41139;SDS011;26881;48.784;9.192;2022-08-02T01:10:15;1.80;;;1.70;;
41139;SDS011;26881;48.784;9.192;2022-08-02T01:15:38;3.70;;;2.30;;
41139;SDS011;26881;48.784;9.192;2022-08-02T01:26:51;3.15;;;1.50;;
41139;SDS011;26881;48.784;9.192;2022-08-02T01:32:21;3.28;;;1.90;;
41139;SDS011;26881;48.784;9.192;2022-08-02T01:38:31;4.70;;;1.88;;
41139;SDS011;26881;48.784;9.192;2022-08-02T01:43:35;2.03;;;1.90;;
41139;SDS011;26881;48.784;9.192;2022-08-02T01:49:02;1.80;;;1.70;;
41139;SDS011;26881;48.784;9.192;2022-08-02T01:54:30;1.48;;;1.38;;
41139;SDS011;26881;48.784;9.192;2022-08-02T01:59:54;1.70;;;1.60;;
41139;SDS011;26881;48.784;9.192;2022-08-02T02:05:18;3.15;;;1.67;;
41139;SDS011;26881;48.784;9.192;2022-08-02T02:10:42;2.13;;;1.60;;
41139;SDS011;26881;48.784;9.192;2022-08-02T02:16:06;2.00;;;1.73;;
41139;SDS011;26881;48.784;9.192;2022-08-02T02:21:28;3.88;;;1.48;;
41139;SDS011;26881;48.784;9.192;2022-08-02T02:26:52;2.53;;;1.55;;
41139;SDS011;26881;48.784;9.192;2022-08-02T02:32:13;2.63;;;1.80;;
41139;SDS011;26881;48.784;9.192;2022-08-02T02:37:37;1.92;;;1.60;;
41139;SDS011;26881;48.784;9.192;2022-08-02T02:43:00;1.42;;;1.33;;
41139;SDS011;26881;48.784;9.192;2022-08-02T02:48:22;3.17;;;1.75;;
41139;SDS011;26881;48.784;9.192;2022-08-02T02:53:47;2.05;;;1.70;;
41139;SDS011;26881;48.784;9.192;2022-08-02T02:59:31;2.80;;;1.58;;
41139;SDS011;26881;48.784;9.192;2022-08-02T03:04:54;1.67;;;1.58;;
41139;SDS011;26881;48.784;9.192;2022-08-02T03:10:18;3.55;;;1.88;;
41139;SDS011;26881;48.784;9.192;2022-08-02T03:15:40;1.67;;;1.58;;
41139;SDS011;26881;48.784;9.192;2022-08-02T03:21:04;2.00;;;1.70;;
41139;SDS011;26881;48.784;9.192;2022-08-02T03:26:27;5.22;;;1.55;;
41139;SDS011;26881;48.784;9.192;2022-08-02T03:31:49;2.72;;;1.80;;
41139;SDS011;26881;48.784;9.192;2022-08-02T03:37:11;5.18;;;1.90;;
41139;SDS011;26881;48.784;9.192;2022-08-02T03:42:33;2.03;;;1.65;;
41139;SDS011;26881;48.784;9.192;2022-08-02T03:47:55;1.90;;;1.80;;
41139;SDS011;26881;48.784;9.192;2022-08-02T03:53:19;3.20;;;1.77;;
41139;SDS011;26881;48.784;9.192;2022-08-02T03:58:41;3.10;;;1.90;;
41139;SDS011;26881;48.784;9.192;2022-08-02T04:04:09;5.60;;;1.83;;
41139;SDS011;26881;48.784;9.192;2022-08-02T04:09:31;3.42;;;1.90;;
41139;SDS011;26881;48.784;9.192;2022-08-02T04:14:53;4.47;;;2.35;;
41139;SDS011;26881;48.784;9.192;2022-08-02T04:20:19;4.88;;;2.20;;
41139;SDS011;26881;48.784;9.192;2022-08-02T04:25:44;4.53;;;1.88;;
41139;SDS011;26881;48.784;9.192;2022-08-02T04:31:11;2.10;;;1.90;;
41139;SDS011;26881;48.784;9.192;2022-08-02T04:36:35;2.65;;;1.83;;
41139;SDS011;26881;48.784;9.192;2022-08-02T04:41:58;3.65;;;2.10;;
41139;SDS011;26881;48.784;9.192;2022-08-02T04:47:20;2.17;;;1.80;;
41139;SDS011;26881;48.784;9.192;2022-08-02T04:53:02;3.03;;;1.60;;
41139;SDS011;26881;48.784;9.192;2022-08-02T04:58:23;2.67;;;2.00;;
41139;SDS011;26881;48.784;9.192;2022-08-02T05:04:00;3.17;;;2.03;;
41139;SDS011;26881;48.784;9.192;2022-08-02T05:09:22;3.00;;;1.67;;
41139;SDS011;26881;48.784;9.192;2022-08-02T05:14:44;2.67;;;2.22;;
41139;SDS011;26881;48.784;9.192;2022-08-02T05:20:06;6.47;;;2.47;;
41139;SDS011;26881;48.784;9.192;2022-08-02T05:25:28;6.97;;;2.30;;
41139;SDS011;26881;48.784;9.192;2022-08-02T05:30:50;2.80;;;2.03;;
41139;SDS011;26881;48.784;9.192;2022-08-02T05:36:12;4.10;;;2.10;;
41139;SDS011;26881;48.784;9.192;2022-08-02T05:41:36;2.35;;;2.10;;
41139;SDS011;26881;48.784;9.192;2022-08-02T05:46:58;3.05;;;2.00;;
41139;SDS011;26881;48.784;9.192;2022-08-02T05:52:20;2.72;;;2.30;;
41139;SDS011;26881;48.784;9.192;2022-08-02T06:03:25;3.42;;;2.58;;
41139;SDS011;26881;48.784;9.192;2022-08-02T06:08:57;3.83;;;2.22;;
41139;SDS011;26881;48.784;9.192;2022-08-02T06:14:24;2.40;;;2.20;;
41139;SDS011;26881;48.784;9.192;2022-08-02T06:19:52;6.25;;;3.05;;
41139;SDS011;26881;48.784;9.192;2022-08-02T06:25:18;5.88;;;2.80;;
41139;SDS011;26881;48.784;9.192;2022-08-02T06:31:01;7.50;;;2.88;;
41139;SDS011;26881;48.784;9.192;2022-08-02T06:41:51;58.58;;;6.22;;
41139;SDS011;26881;48.784;9.192;2022-08-02T06:47:18;9.57;;;3.63;;
41139;SDS011;26881;48.784;9.192;2022-08-02T06:52:40;5.70;;;3.20;;
41139;SDS011;26881;48.784;9.192;2022-08-02T06:58:02;5.63;;;2.70;;
41139;SDS011;26881;48.784;9.192;2022-08-02T07:03:24;5.13;;;2.90;;
41139;SDS011;26881;48.784;9.192;2022-08-02T07:08:46;3.65;;;3.03;;
41139;SDS011;26881;48.784;9.192;2022-08-02T07:14:28;6.45;;;3.70;;
41139;SDS011;26881;48.784;9.192;2022-08-02T07:19:49;10.43;;;3.22;;
41139;SDS011;26881;48.784;9.192;2022-08-02T07:25:11;8.15;;;3.40;;
41139;SDS011;26881;48.784;9.192;2022-08-02T07:30:33;7.57;;;2.67;;
41139;SDS011;26881;48.784;9.192;2022-08-02T07:35:56;5.03;;;2.85;;
41139;SDS011;26881;48.784;9.192;2022-08-02T07:41:22;4.63;;;3.45;;
41139;SDS011;26881;48.784;9.192;2022-08-02T07:46:44;4.95;;;3.60;;
41139;SDS011;26881;48.784;9.192;2022-08-02T07:52:06;6.03;;;3.35;;
41139;SDS011;26881;48.784;9.192;2022-08-02T07:57:28;4.63;;;3.28;;
41139;SDS011;26881;48.784;9.192;2022-08-02T08:02:51;5.30;;;3.30;;
41139;SDS011;26881;48.784;9.192;2022-08-02T08:08:19;4.15;;;3.45;;
41139;SDS011;26881;48.784;9.192;2022-08-02T08:13:40;5.03;;;3.58;;
41139;SDS011;26881;48.784;9.192;2022-08-02T08:19:02;47.67;;;5.95;;
41139;SDS011;26881;48.784;9.192;2022-08-02T08:24:28;6.90;;;3.03;;
41139;SDS011;26881;48.784;9.192;2022-08-02T08:29:50;6.38;;;3.00;;
41139;SDS011;26881;48.784;9.192;2022-08-02T08:35:11;3.60;;;2.92;;
41139;SDS011;26881;48.784;9.192;2022-08-02T08:40:34;18.90;;;4.00;;
41139;SDS011;26881;48.784;9.192;2022-08-02T08:45:57;6.13;;;3.13;;
41139;SDS011;26881;48.784;9.192;2022-08-02T08:51:20;4.00;;;3.50;;
41139;SDS011;26881;48.784;9.192;2022-08-02T08:56:43;3.83;;;3.20;;
41139;SDS011;26881;48.784;9.192;2022-08-02T09:02:06;14.88;;;4.13;;
41139;SDS011;26881;48.784;9.192;2022-08-02T09:07:41;4.60;;;3.42;;
41139;SDS011;26881;48.784;9.192;2022-08-02T09:13:09;6.97;;;3.22;;
41139;SDS011;26881;48.784;9.192;2022-08-02T09:18:51;4.43;;;4.03;;
41139;SDS011;26881;48.784;9.192;2022-08-02T09:24:17;4.03;;;3.25;;
41139;SDS011;26881;48.784;9.192;2022-08-02T09:29:50;10.63;;;4.05;;
41139;SDS011;26881;48.784;9.192;2022-08-02T09:35:34;6.18;;;3.95;;
41139;SDS011;26881;48.784;9.192;2022-08-02T09:41:18;3.97;;;3.55;;
41139;SDS011;26881;48.784;9.192;2022-08-02T09:46:42;5.53;;;4.07;;
41139;SDS011;26881;48.784;9.192;2022-08-02T09:52:05;4.40;;;4.00;;
41139;SDS011;26881;48.784;9.192;2022-08-02T09:57:28;5.65;;;3.53;;
41139;SDS011;26881;48.784;9.192;2022-08-02T10:03:09;3.97;;;3.50;;
41139;SDS011;26881;48.784;9.192;2022-08-02T10:08:43;6.18;;;3.75;;
41139;SDS011;26881;48.784;9.192;2022-08-02T10:14:05;6.50;;;4.00;;
41139;SDS011;26881;48.784;9.192;2022-08-02T10:19:28;5.65;;;3.80;;
41139;SDS011;26881;48.784;9.192;2022-08-02T10:25:10;3.78;;;3.38;;
41139;SDS011;26881;48.784;9.192;2022-08-02T10:30:34;4.30;;;3.20;;
41139;SDS011;26881;48.784;9.192;2022-08-02T10:35:58;4.22;;;3.17;;
41139;SDS011;26881;48.784;9.192;2022-08-02T10:41:40;4.60;;;4.10;;
41139;SDS011;26881;48.784;9.192;2022-08-02T10:52:42;5.47;;;3.30;;
41139;SDS011;26881;48.784;9.192;2022-08-02T10:58:20;60.53;;;8.70;;
41139;SDS011;26881;48.784;9.192;2022-08-02T11:03:50;3.92;;;3.50;;
41139;SDS011;26881;48.784;9.192;2022-08-02T11:09:25;4.78;;;2.97;;
41139;SDS011;26881;48.784;9.192;2022-08-02T11:14:58;5.88;;;3.00;;
41139;SDS011;26881;48.784;9.192;2022-08-02T11:20:22;4.30;;;3.15;;
41139;SDS011;26881;48.784;9.192;2022-08-02T11:25:44;4.35;;;3.10;;
41139;SDS011;26881;48.784;9.192;2022-08-02T11:31:24;4.43;;;3.17;;
41139;SDS011;26881;48.784;9.192;2022-08-02T11:36:47;5.20;;;3.00;;
41139;SDS011;26881;48.784;9.192;2022-08-02T11:42:10;7.03;;;2.80;;
41139;SDS011;26881;48.784;9.192;2022-08-02T11:47:33;22.20;;;5.20;;
41139;SDS011;26881;48.784;9.192;2022-08-02T11:53:11;46.72;;;5.03;;
41139;SDS011;26881;48.784;9.192;2022-08-02T11:58:35;11.07;;;3.00;;
41139;SDS011;26881;48.784;9.192;2022-08-02T12:03:57;5.30;;;3.20;;
41139;SDS011;26881;48.784;9.192;2022-08-02T12:09:21;5.82;;;3.42;;
41139;SDS011;26881;48.784;9.192;2022-08-02T12:14:43;4.10;;;2.70;;
41139;SDS011;26881;48.784;9.192;2022-08-02T12:20:05;4.47;;;2.78;;
41139;SDS011;26881;48.784;9.192;2022-08-02T12:25:27;8.77;;;3.22;;
41139;SDS011;26881;48.784;9.192;2022-08-02T12:30:56;3.50;;;3.20;;
41139;SDS011;26881;48.784;9.192;2022-08-02T12:36:23;5.72;;;2.72;;
41139;SDS011;26881;48.784;9.192;2022-08-02T12:41:55;2.83;;;2.63;;
41139;SDS011;26881;48.784;9.192;2022-08-02T12:47:17;4.55;;;2.80;;
41139;SDS011;26881;48.784;9.192;2022-08-02T12:52:42;4.55;;;2.90;;
41139;SDS011;26881;48.784;9.192;2022-08-02T12:58:07;3.05;;;2.50;;
41139;SDS011;26881;48.784;9.192;2022-08-02T13:03:29;7.03;;;3.00;;
41139;SDS011;26881;48.784;9.192;2022-08-02T13:09:15;3.95;;;2.75;;
41139;SDS011;26881;48.784;9.192;2022-08-02T13:14:37;6.40;;;2.60;;
41139;SDS011;26881;48.784;9.192;2022-08-02T13:20:03;2.60;;;2.40;;
41139;SDS011;26881;48.784;9.192;2022-08-02T13:25:30;4.43;;;2.40;;
41139;SDS011;26881;48.784;9.192;2022-08-02T13:30:52;2.13;;;2.03;;
41139;SDS011;26881;48.784;9.192;2022-08-02T13:36:14;3.17;;;2.50;;
41139;SDS011;26881;48.784;9.192;2022-08-02T13:41:36;2.97;;;2.10;;
41139;SDS011;26881;48.784;9.192;2022-08-02T13:46:57;2.10;;;1.90;;
41139;SDS011;26881;48.784;9.192;2022-08-02T13:52:19;2.42;;;2.10;;
41139;SDS011;26881;48.784;9.192;2022-08-02T13:57:41;3.88;;;2.17;;
41139;SDS011;26881;48.784;9.192;2022-08-02T14:03:13;6.63;;;2.33;;
41139;SDS011;26881;48.784;9.192;2022-08-02T14:08:35;2.38;;;2.13;;
41139;SDS011;26881;48.784;9.192;2022-08-02T14:13:58;5.65;;;2.40;;
41139;SDS011;26881;48.784;9.192;2022-08-02T14:19:20;5.32;;;2.88;;
41139;SDS011;26881;48.784;9.192;2022-08-02T14:24:42;2.83;;;2.58;;
41139;SDS011;26881;48.784;9.192;2022-08-02T14:30:04;2.20;;;2.08;;
41139;SDS011;26881;48.784;9.192;2022-08-02T14:35:26;2.88;;;2.42;;
41139;SDS011;26881;48.784;9.192;2022-08-02T14:40:48;2.67;;;2.22;;
41139;SDS011;26881;48.784;9.192;2022-08-02T14:46:11;3.05;;;2.47;;
41139;SDS011;26881;48.784;9.192;2022-08-02T14:51:33;2.35;;;2.15;;
41139;SDS011;26881;48.784;9.192;2022-08-02T14:56:56;3.67;;;2.22;;
41139;SDS011;26881;48.784;9.192;2022-08-02T15:02:19;2.28;;;2.00;;
41139;SDS011;26881;48.784;9.192;2022-08-02T15:07:41;2.92;;;2.70;;
41139;SDS011;26881;48.784;9.192;2022-08-02T15:13:09;3.08;;;1.80;;
41139;SDS011;26881;48.784;9.192;2022-08-02T15:18:31;3.33;;;1.98;;
41139;SDS011;26881;48.784;9.192;2022-08-02T15:23:53;1.90;;;1.80;;
41139;SDS011;26881;48.784;9.192;2022-08-02T15:29:15;2.63;;;1.90;;
41139;SDS011;26881;48.784;9.192;2022-08-02T15:34:37;3.88;;;1.70;;
41139;SDS011;26881;48.784;9.192;2022-08-02T15:40:00;2.38;;;2.10;;
41139;SDS011;26881;48.784;9.192;2022-08-02T15:45:22;4.43;;;1.75;;
41139;SDS011;26881;48.784;9.192;2022-08-02T15:50:45;2.05;;;1.88;;
41139;SDS011;26881;48.784;9.192;2022-08-02T15:56:07;2.33;;;1.65;;
41139;SDS011;26881;48.784;9.192;2022-08-02T16:01:33;4.60;;;1.92;;
41139;SDS011;26881;48.784;9.192;2022-08-02T16:06:59;1.70;;;1.60;;
41139;SDS011;26881;48.784;9.192;2022-08-02T16:12:22;2.58;;;1.67;;
41139;SDS011;26881;48.784;9.192;2022-08-02T16:17:53;2.03;;;1.60;;
41139;SDS011;26881;48.784;9.192;2022-08-02T16:23:15;2.13;;;1.55;;
41139;SDS011;26881;48.784;9.192;2022-08-02T16:28:37;2.33;;;1.80;;
41139;SDS011;26881;48.784;9.192;2022-08-02T16:33:58;2.95;;;1.95;;
41139;SDS011;26881;48.784;9.192;2022-08-02T16:39:20;4.30;;;1.77;;
41139;SDS011;26881;48.784;9.192;2022-08-02T16:44:42;3.83;;;1.90;;
41139;SDS011;26881;48.784;9.192;2022-08-02T16:50:14;1.75;;;1.65;;
41139;SDS011;26881;48.784;9.192;2022-08-02T16:55:49;1.95;;;1.80;;
41139;SDS011;26881;48.784;9.192;2022-08-02T17:01:13;5.65;;;1.83;;
41139;SDS011;26881;48.784;9.192;2022-08-02T17:06:42;2.72;;;2.08;;
41139;SDS011;26881;48.784;9.192;2022-08-02T17:12:12;2.45;;;1.80;;
41139;SDS011;26881;48.784;9.192;2022-08-02T17:17:36;3.63;;;2.40;;
41139;SDS011;26881;48.784;9.192;2022-08-02T17:23:03;2.10;;;2.00;;
41139;SDS011;26881;48.784;9.192;2022-08-02T17:28:25;2.05;;;1.95;;
41139;SDS011;26881;48.784;9.192;2022-08-02T17:33:53;2.90;;;1.70;;
41139;SDS011;26881;48.784;9.192;2022-08-02T17:39:15;3.05;;;2.00;;
41139;SDS011;26881;48.784;9.192;2022-08-02T17:44:37;4.78;;;2.45;;
41139;SDS011;26881;48.784;9.192;2022-08-02T17:49:59;3.67;;;2.67;;
41139;SDS011;26881;48.784;9.192;2022-08-02T17:55:23;3.20;;;1.98;;
41139;SDS011;26881;48.784;9.192;2022-08-02T18:00:45;2.55;;;1.85;;
41139;SDS011;26881;48.784;9.192;2022-08-02T18:06:07;4.53;;;2.33;;
41139;SDS011;26881;48.784;9.192;2022-08-02T18:11:30;3.47;;;2.08;;
41139;SDS011;26881;48.784;9.192;2022-08-02T18:17:12;5.50;;;2.03;;
41139;SDS011;26881;48.784;9.192;2022-08-02T18:22:34;2.90;;;2.08;;
41139;SDS011;26881;48.784;9.192;2022-08-02T18:27:57;2.63;;;1.90;;
41139;SDS011;26881;48.784;9.192;2022-08-02T18:33:23;2.00;;;1.90;;
41139;SDS011;26881;48.784;9.192;2022-08-02T18:39:05;5.00;;;4.63;;
41139;SDS011;26881;48.784;9.192;2022-08-02T18:44:29;4.65;;;3.95;;
41139;SDS011;26881;48.784;9.192;2022-08-02T18:49:51;3.40;;;1.92;;
41139;SDS011;26881;48.784;9.192;2022-08-02T18:55:16;4.90;;;2.60;;
41139;SDS011;26881;48.784;9.192;2022-08-02T19:00:59;2.95;;;2.40;;
41139;SDS011;26881;48.784;9.192;2022-08-02T19:06:35;7.07;;;3.42;;
41139;SDS011;26881;48.784;9.192;2022-08-02T19:11:57;4.30;;;2.90;;
41139;SDS011;26881;48.784;9.192;2022-08-02T19:17:19;7.30;;;3.97;;
41139;SDS011;26881;48.784;9.192;2022-08-02T19:23:01;5.63;;;2.70;;
41139;SDS011;26881;48.784;9.192;2022-08-02T19:28:26;2.63;;;2.30;;
41139;SDS011;26881;48.784;9.192;2022-08-02T19:33:49;5.65;;;2.95;;
41139;SDS011;26881;48.784;9.192;2022-08-02T19:39:28;3.67;;;2.78;;
41139;SDS011;26881;48.784;9.192;2022-08-02T19:44:51;3.60;;;2.92;;
41139;SDS011;26881;48.784;9.192;2022-08-02T19:50:15;6.75;;;2.75;;
41139;SDS011;26881;48.784;9.192;2022-08-02T19:55:46;10.35;;;3.60;;
41139;SDS011;26881;48.784;9.192;2022-08-02T20:01:22;3.35;;;2.67;;
41139;SDS011;26881;48.784;9.192;2022-08-02T20:07:00;3.00;;;2.58;;
41139;SDS011;26881;48.784;9.192;2022-08-02T20:12:23;4.18;;;2.45;;
41139;SDS011;26881;48.784;9.192;2022-08-02T20:17:46;3.30;;;2.35;;
41139;SDS011;26881;48.784;9.192;2022-08-02T20:23:10;3.95;;;2.60;;
41139;SDS011;26881;48.784;9.192;2022-08-02T20:28:54;4.88;;;2.63;;
41139;SDS011;26881;48.784;9.192;2022-08-02T20:34:23;4.75;;;3.03;;
41139;SDS011;26881;48.784;9.192;2022-08-02T20:39:47;3.90;;;2.88;;
41139;SDS011;26881;48.784;9.192;2022-08-02T20:45:09;3.92;;;3.20;;
41139;SDS011;26881;48.784;9.192;2022-08-02T20:50:35;4.90;;;3.00;;
41139;SDS011;26881;48.784;9.192;2022-08-02T20:56:11;4.00;;;2.95;;
41139;SDS011;26881;48.784;9.192;2022-08-02T21:01:34;3.65;;;2.88;;
41139;SDS011;26881;48.784;9.192;2022-08-02T21:06:57;7.22;;;2.42;;
41139;SDS011;26881;48.784;9.192;2022-08-02T21:12:19;2.88;;;2.47;;
41139;SDS011;26881;48.784;9.192;2022-08-02T21:17:50;2.90;;;2.65;;
41139;SDS011;26881;48.784;9.192;2022-08-02T21:23:22;7.28;;;2.70;;
41139;SDS011;26881;48.784;9.192;2022-08-02T21:28:44;2.88;;;2.67;;
41139;SDS011;26881;48.784;9.192;2022-08-02T21:34:11;2.30;;;2.10;;
41139;SDS011;26881;48.784;9.192;2022-08-02T21:39:47;2.72;;;2.50;;
41139;SDS011;26881;48.784;9.192;2022-08-02T21:45:10;4.05;;;2.80;;
41139;SDS011;26881;48.784;9.192;2022-08-02T21:50:40;2.70;;;2.33;;
41139;SDS011;26881;48.784;9.192;2022-08-02T21:56:02;3.22;;;2.90;;
41139;SDS011;26881;48.784;9.192;2022-08-02T22:01:30;4.03;;;2.72;;
41139;SDS011;26881;48.784;9.192;2022-08-02T22:06:53;3.28;;;2.70;;
41139;SDS011;26881;48.784;9.192;2022-08-02T22:12:16;4.53;;;2.40;;
41139;SDS011;26881;48.784;9.192;2022-08-02T22:17:39;3.78;;;2.60;;
41139;SDS011;26881;48.784;9.192;2022-08-02T22:23:14;4.13;;;2.63;;
41139;SDS011;26881;48.784;9.192;2022-08-02T22:28:43;2.70;;;2.50;;
41139;SDS011;26881;48.784;9.192;2022-08-02T22:34:14;2.95;;;2.67;;
41139;SDS011;26881;48.784;9.192;2022-08-02T22:39:56;3.17;;;2.88;;
41139;SDS011;26881;48.784;9.192;2022-08-02T22:45:30;3.50;;;2.63;;
41139;SDS011;26881;48.784;9.192;2022-08-02T22:50:58;5.00;;;2.92;;
41139;SDS011;26881;48.784;9.192;2022-08-02T22:56:19;4.38;;;3.17;;
41139;SDS011;26881;48.784;9.192;2022-08-02T23:01:42;3.45;;;2.85;;
41139;SDS011;26881;48.784;9.192;2022-08-02T23:07:04;3.30;;;2.85;;
41139;SDS011;26881;48.784;9.192;2022-08-02T23:12:26;4.07;;;2.80;;
41139;SDS011;26881;48.784;9.192;2022-08-02T23:17:48;9.32;;;3.22;;
41139;SDS011;26881;48.784;9.192;2022-08-02T23:23:28;3.40;;;2.50;;
41139;SDS011;26881;48.784;9.192;2022-08-02T23:28:50;4.95;;;3.58;;
41139;SDS011;26881;48.784;9.192;2022-08-02T23:34:12;3.95;;;3.58;;
41139;SDS011;26881;48.784;9.192;2022-08-02T23:39:34;7.32;;;3.42;;
41139;SDS011;26881;48.784;9.192;2022-08-02T23:44:56;14.27;;;3.83;;
41139;SDS011;26881;48.784;9.192;2022-08-02T23:50:18;7.18;;;3.60;;
41139;SDS011;26881;48.784;9.192;2022-08-02T23:55:40;9.10;;;4.00;;
